^^
Datos históricos de la estación: Murcia-Puente Tocinos
Diario Informe para Marzo 6, 2019 Unidades:  Ingés    Métrico   Ambas
Diario Semanal Mensual Anual
  Máxima: Mínima: Promedio:
Temperatura: 80.1 °F 63 °F 72.9 °F
Punto de rocio: 61.2 °F 36.1 °F 47.1 °F
Humedad: 81% 25% 42%
Velocidad viento: 13.5mph 0mph 6.1mph
Racha viento: 24.2mph - -
Viento- - SE
Presión: 29.9 in 29.8 in -
Precipitación: 0 in    
 
 
Tabla de datos para Marzo 6, 2019
Hora Temperatura Punto de rocio Presión Viento Velocidad viento Racha viento Humedad Intensidad lluvia(por hora) Nubes
00:04 74.7 °F 36.5 °F 29.9 in Oeste 1.4 mph 3.6 mph 25% 0 in
00:09 74.7 °F 36.5 °F 29.9 in Oeste 1.6 mph 4.6 mph 25% 0 in
00:14 74.7 °F 36.3 °F 29.9 in Oeste 2 mph 5 mph 25% 0 in
00:19 74.5 °F 36.3 °F 29.9 in Oeste 2 mph 4 mph 25% 0 in
00:24 74.3 °F 36.1 °F 29.9 in Oeste 2 mph 2.4 mph 25% 0 in
00:29 74.1 °F 37.8 °F 29.9 in Oeste 1.2 mph 4.3 mph 26.8% 0 in
00:34 73.9 °F 38.7 °F 29.9 in Calm   5 mph 27.9% 0 in
00:39 73.8 °F 38.7 °F 29.9 in Sur 0.9 mph 5 mph 28% 0 in
00:44 73.6 °F 38.5 °F 29.9 in Sur 2.4 mph 4 mph 27.9% 0 in
00:49 73.6 °F 38.5 °F 29.9 in Sur 2.1 mph 2.4 mph 28% 0 in
00:54 73.4 °F 38.1 °F 29.9 in Sur 1.4 mph 2.3 mph 27.8% 0 in
00:59 73.2 °F 38.3 °F 29.9 in Sur 1 mph 2.3 mph 28.3% 0 in
01:04 73.2 °F 37.6 °F 29.9 in Calm   3.5 mph 27.4% 0 in
01:09 73 °F 37.6 °F 29.9 in Oeste 0.7 mph 4.6 mph 27.5% 0 in
01:14 72.9 °F 37.6 °F 29.9 in Oeste 2 mph 5 mph 27.9% 0 in
01:19 72.3 °F 37.4 °F 29.9 in Oeste 2.2 mph 5 mph 28% 0 in
01:24 72.1 °F 37.2 °F 29.9 in Oeste 2.4 mph 4 mph 28% 0 in
01:29 72 °F 37.9 °F 29.9 in Oeste 2.2 mph 3.5 mph 28.9% 0 in
01:34 72 °F 38.1 °F 29.9 in Oeste 1.8 mph 3.6 mph 29.2% 0 in
01:39 72 °F 39.6 °F 29.9 in ESE 1.9 mph 5 mph 30.9% 0 in
01:44 71.8 °F 39.9 °F 29.9 in SE 2 mph 6.4 mph 31.6% 0 in
01:49 71.2 °F 39.9 °F 29.9 in SE 2.4 mph 7 mph 32.2% 0 in
01:54 70.7 °F 39.7 °F 29.9 in Sur 3.1 mph 5.2 mph 32.5% 0 in
01:59 70.2 °F 38.8 °F 29.9 in SSO 3.3 mph 6.2 mph 31.8% 0 in
02:04 70.3 °F 38.3 °F 29.9 in SSO 3.6 mph 6 mph 31% 0 in
02:09 70.3 °F 38.3 °F 29.9 in SSO 3.6 mph 6 mph 31% 0 in
02:14 70.5 °F 38.5 °F 29.9 in SO 3.6 mph 6 mph 31% 0 in
02:19 70.7 °F 38.3 °F 29.9 in SSO 3.4 mph 6 mph 30.6% 0 in
02:24 70.7 °F 37.8 °F 29.9 in SO 3.1 mph 5.8 mph 30% 0 in
02:29 70.7 °F 37.6 °F 29.9 in SSO 3.1 mph 6 mph 30% 0 in
02:34 70.5 °F 37.6 °F 29.9 in SSO 3.1 mph 6 mph 30% 0 in
02:39 70.3 °F 37.6 °F 29.9 in SSO 3.3 mph 6.9 mph 30% 0 in
02:44 70.3 °F 37.4 °F 29.9 in Sur 3.6 mph 7 mph 30% 0 in
02:49 70.2 °F 37.4 °F 29.9 in Sur 3.4 mph 5.9 mph 30.1% 0 in
02:54 69.8 °F 37.8 °F 29.9 in SSO 3.1 mph 6 mph 31% 0 in
02:59 69.4 °F 37.6 °F 29.9 in SSO 3.3 mph 6 mph 31.1% 0 in
03:04 69.3 °F 38.1 °F 29.9 in SSO 3.6 mph 6 mph 32% 0 in
03:09 69.1 °F 37.9 °F 29.9 in SSO 3.6 mph 6 mph 32% 0 in
03:14 68.7 °F 38.3 °F 29.9 in SSO 3.6 mph 5.9 mph 32.8% 0 in
03:19 68.5 °F 38.3 °F 29.9 in Sur 3.7 mph 6 mph 33% 0 in
03:24 68.4 °F 38.1 °F 29.9 in Sur 4 mph 6.9 mph 33% 0 in
03:29 68.2 °F 37.9 °F 29.9 in Sur 3.9 mph 7 mph 33% 0 in
03:34 67.8 °F 37.8 °F 29.9 in SSO 3.6 mph 6 mph 33.1% 0 in
03:39 67.8 °F 38.1 °F 29.9 in SSO 3.6 mph 6.2 mph 33.6% 0 in
03:44 67.8 °F 37.6 °F 29.9 in SO 3.6 mph 6 mph 33% 0 in
03:49 67.8 °F 37.8 °F 29.9 in SO 3.7 mph 8.1 mph 33% 0 in
03:54 68 °F 37.8 °F 29.9 in SO 4 mph 8 mph 33% 0 in
03:59 68.2 °F 37.9 °F 29.9 in SO 4 mph 6.9 mph 33% 0 in
04:04 68 °F 37.8 °F 29.9 in SO 4 mph 7 mph 33% 0 in
04:09 68 °F 37.4 °F 29.9 in OSO 4.3 mph 8.1 mph 32.5% 0 in
04:14 68.2 °F 37.2 °F 29.9 in SO 4.7 mph 10 mph 32% 0 in
04:19 68.4 °F 37.2 °F 29.9 in SO 5.2 mph 10 mph 32% 0 in
04:24 68.4 °F 37.2 °F 29.9 in SO 5.9 mph 9 mph 32% 0 in
04:29 68.2 °F 37.2 °F 29.9 in SO 5.7 mph 8.1 mph 32% 0 in
04:34 68 °F 37 °F 29.9 in SO 5.4 mph 8.5 mph 32.1% 0 in
04:39 67.8 °F 37.4 °F 29.9 in SO 5.3 mph 9 mph 32.8% 0 in
04:44 67.8 °F 37.6 °F 29.9 in SO 5.2 mph 8 mph 33% 0 in
04:49 67.6 °F 37.4 °F 29.9 in SO 4.6 mph 7 mph 32.9% 0 in
04:54 67.6 °F 37.4 °F 29.9 in OSO 3.6 mph 6 mph 33% 0 in
04:59 67.5 °F 37.2 °F 29.9 in SO 3.6 mph 6.9 mph 33% 0 in
05:04 67.1 °F 37 °F 29.9 in SO 3.6 mph 7 mph 33% 0 in
05:09 66.9 °F 37 °F 29.9 in OSO 3.7 mph 6 mph 33.1% 0 in
05:14 66.9 °F 37.2 °F 29.9 in SO 4 mph 6.9 mph 33.6% 0 in
05:19 66.7 °F 37.6 °F 29.9 in SO 4.3 mph 7.4 mph 34% 0 in
05:24 66.6 °F 37.4 °F 29.9 in OSO 4.7 mph 7 mph 34% 0 in
05:29 66.6 °F 37.2 °F 29.9 in OSO 4.5 mph 7 mph 34% 0 in
05:34 66.4 °F 37 °F 29.9 in OSO 4.3 mph 7 mph 34% 0 in
05:39 66.4 °F 37 °F 29.9 in SO 4.3 mph 6.9 mph 34% 0 in
05:44 66.2 °F 36.7 °F 29.9 in OSO 4.3 mph 8.1 mph 33.5% 0 in
05:49 66 °F 36.7 °F 29.9 in OSO 4.3 mph 8 mph 33.8% 0 in
05:54 66 °F 36.9 °F 29.9 in Oeste 4.3 mph 7 mph 34% 0 in
05:59 65.8 °F 36.1 °F 29.9 in Oeste 3.8 mph 6.9 mph 33.4% 0 in
06:04 65.7 °F 36.1 °F 29.9 in SO 3.1 mph 7 mph 33.4% 0 in
06:09 65.7 °F 36.5 °F 29.9 in OSO 3.1 mph 5.2 mph 33.9% 0 in
06:14 65.7 °F 36.5 °F 29.9 in OSO 3.1 mph 5.9 mph 34% 0 in
06:19 65.7 °F 36.5 °F 29.9 in Oeste 3.1 mph 6 mph 34% 0 in
06:24 65.5 °F 37 °F 29.9 in Oeste 3.1 mph 6 mph 34.9% 0 in
06:29 65.1 °F 36.9 °F 29.9 in OSO 3.1 mph 5 mph 35% 0 in
06:34 64.9 °F 36.7 °F 29.9 in OSO 3.1 mph 5 mph 35% 0 in
06:39 64.9 °F 37.4 °F 29.9 in OSO 2.8 mph 4.6 mph 36.2% 0 in
06:44 64.8 °F 39 °F 29.9 in SE 2.4 mph 5 mph 38.8% 0 in
06:49 64.4 °F 38.1 °F 29.9 in SO 2.4 mph 5.9 mph 37.8% 0 in
06:54 64.2 °F 37.4 °F 29.9 in OSO 2.4 mph 6.2 mph 37.1% 0 in
06:59 64.4 °F 37.2 °F 29.9 in OSO 3.2 mph 6.9 mph 36.7% 0 in
07:04 64.6 °F 37.6 °F 29.9 in SO 4.3 mph 7 mph 36.9% 0 in
07:09 64.6 °F 38.3 °F 29.9 in SSO 3.8 mph 6 mph 37.9% 0 in
07:14 64.6 °F 39.7 °F 29.9 in SSE 2.9 mph 5.2 mph 40.1% 0 in
07:19 64 °F 39.7 °F 29.9 in SSE 3.2 mph 5.4 mph 41% 0 in
07:24 63.5 °F 39.9 °F 29.9 in SSE 3.6 mph 5 mph 41.9% 0 in
07:29 63.1 °F 39.7 °F 29.9 in Sur 3.4 mph 5.2 mph 42.1% 0 in
07:34 63 °F 40.1 °F 29.9 in Sur 2.9 mph 5 mph 42.9% 0 in
07:39 63.1 °F 40.1 °F 29.9 in Sur 2.9 mph 5 mph 42.5% 0 in
07:44 63.3 °F 39.4 °F 29.9 in Sur 2.9 mph 5 mph 41.3% 0 in
07:49 63.9 °F 39.2 °F 29.9 in SO 2.7 mph 4.6 mph 40.4% 0 in
07:54 64.4 °F 38.8 °F 29.9 in OSO 2.4 mph 6.9 mph 39% 0 in
07:59 64.9 °F 38.5 °F 29.9 in OSO 2.9 mph 8.1 mph 37.7% 0 in
08:04 65.3 °F 38.3 °F 29.9 in OSO 3.6 mph 8 mph 37% 0 in
08:09 65.7 °F 38.7 °F 29.9 in OSO 3.6 mph 7 mph 37% 0 in
08:14 65.8 °F 38.7 °F 29.9 in OSO 3.6 mph 6.4 mph 36.8% 0 in
08:19 66 °F 38.3 °F 29.9 in OSO 3.7 mph 7 mph 36.1% 0 in
08:24 66.4 °F 38.3 °F 29.9 in OSO 4 mph 7 mph 35.7% 0 in
08:29 66.6 °F 37.9 °F 29.9 in OSO 4 mph 8.1 mph 34.8% 0 in
08:34 66.7 °F 37.6 °F 29.9 in OSO 4 mph 8.1 mph 34% 0 in
08:39 67.3 °F 37.8 °F 29.9 in SO 4.1 mph 8.7 mph 33.8% 0 in
08:44 67.6 °F 37.4 °F 29.9 in SO 4.3 mph 9.7 mph 32.9% 0 in
08:49 68.2 °F 37 °F 29.9 in SO 4.7 mph 10 mph 31.9% 0 in
08:54 68.4 °F 36.7 °F 29.9 in SO 5.2 mph 9 mph 31.3% 0 in
08:59 68.5 °F 37.2 °F 29.9 in SO 5.5 mph 9.2 mph 31.5% 0 in
09:04 68.9 °F 37.4 °F 29.9 in SO 5.9 mph 9 mph 31.5% 0 in
09:09 69.3 °F 37.4 °F 29.9 in SO 5.7 mph 9.2 mph 31.1% 0 in
09:14 69.4 °F 37.6 °F 29.9 in SO 5.2 mph 9.2 mph 31% 0 in
09:19 69.6 °F 37.6 °F 29.9 in SO 5 mph 9.2 mph 31% 0 in
09:24 69.6 °F 37.6 °F 29.9 in SSO 4.7 mph 9 mph 31% 0 in
09:29 70 °F 37.9 °F 29.9 in OSO 4.9 mph 8 mph 31% 0 in
09:34 70.2 °F 37.4 °F 29.9 in OSO 5.2 mph 10.4 mph 30.2% 0 in
09:39 70.2 °F 37.6 °F 29.9 in OSO 5.3 mph 10.4 mph 30.2% 0 in
09:44 70.2 °F 37.6 °F 29.9 in SO 5.4 mph 9.2 mph 30.3% 0 in
09:49 70.3 °F 37.6 °F 29.9 in OSO 5.3 mph 9.2 mph 30% 0 in
09:54 70.7 °F 37.8 °F 29.9 in Oeste 5.2 mph 8 mph 30% 0 in
09:59 71.2 °F 37.9 °F 29.9 in OSO 3.9 mph 5.9 mph 29.8% 0 in
10:04 71.8 °F 38.1 °F 29.9 in ONO 2 mph 6 mph 29.4% 0 in
10:09 72.1 °F 38.1 °F 29.9 in ONO 2.4 mph 6.2 mph 28.9% 0 in
10:14 72.7 °F 37.8 °F 29.9 in ONO 2.9 mph 6.2 mph 28.2% 0 in
10:19 72.9 °F 37.8 °F 29.9 in Oeste 3.2 mph 6 mph 28% 0 in
10:24 73 °F 37.9 °F 29.9 in ONO 3.6 mph 6 mph 28% 0 in
10:29 73.2 °F 38.1 °F 29.9 in ONO 3.3 mph 6 mph 27.9% 0 in
10:34 73.4 °F 38.3 °F 29.9 in NO 2.9 mph 6 mph 28% 0 in
10:39 73.8 °F 38.3 °F 29.9 in ONO 2.9 mph 5 mph 27.7% 0 in
10:44 74.1 °F 38.8 °F 29.9 in NNE 2.9 mph 5.2 mph 27.9% 0 in
10:49 74.5 °F 38.5 °F 29.9 in North 2.9 mph 5 mph 27.2% 0 in
10:54 74.8 °F 39.6 °F 29.9 in ENE 2.9 mph 4.6 mph 28% 0 in
10:59 75.4 °F 39.4 °F 29.9 in NNO 2.7 mph 5.2 mph 27.3% 0 in
11:04 75.7 °F 40.3 °F 29.9 in Oeste 2.4 mph 5.2 mph 27.9% 0 in
11:09 75.9 °F 40.5 °F 29.9 in NNE 2.4 mph 6.2 mph 28% 0 in
11:14 76.1 °F 40.3 °F 29.9 in NE 2.4 mph 7.4 mph 27.6% 0 in
11:19 76.3 °F 40.3 °F 29.9 in NE 2.7 mph 8.1 mph 27.4% 0 in
11:24 76.5 °F 40.1 °F 29.9 in NE 3.1 mph 8.1 mph 27.1% 0 in
11:29 76.5 °F 40.1 °F 29.9 in NE 3.4 mph 11.8 mph 27.3% 0 in
11:34 76.1 °F 40.8 °F 29.9 in NNE 4 mph 12 mph 28.3% 0 in
11:39 76.3 °F 41.2 °F 29.9 in NE 4.5 mph 10.7 mph 28.5% 0 in
11:44 76.3 °F 42.6 °F 29.9 in NNE 5.2 mph 11 mph 29.9% 0 in
11:49 76.5 °F 43 °F 29.9 in NNE 5.3 mph 11.2 mph 30.3% 0 in
11:54 76.8 °F 44.2 °F 29.9 in NE 5.4 mph 12.7 mph 31.5% 0 in
11:59 77.2 °F 45.5 °F 29.9 in NNE 5.7 mph 13.8 mph 32.8% 0 in
12:04 77.2 °F 46.2 °F 29.9 in NE 6.2 mph 14 mph 33.5% 0 in
12:09 77 °F 47.5 °F 29.9 in NNE 6.2 mph 11 mph 35.3% 0 in
12:14 77.4 °F 48.6 °F 29.9 in North 6.2 mph 13.7 mph 36.3% 0 in
12:19 77.5 °F 50 °F 29.9 in ENE 6.1 mph 14 mph 38.3% 0 in
12:24 77.5 °F 50.7 °F 29.9 in NE 5.9 mph 13 mph 39% 0 in
12:29 77.5 °F 52.5 °F 29.9 in NE 6.5 mph 13 mph 42% 0 in
12:34 77.5 °F 54.5 °F 29.9 in Este 7.4 mph 13 mph 45% 0 in
12:39 77.9 °F 55.4 °F 29.9 in ENE 6.6 mph 11.8 mph 45.9% 0 in
12:44 78.1 °F 55.9 °F 29.9 in NE 5.2 mph 12.7 mph 46.5% 0 in
12:49 78.3 °F 55.6 °F 29.9 in NE 5.6 mph 13 mph 45.7% 0 in
12:54 78.3 °F 55.2 °F 29.9 in NE 6.2 mph 15 mph 44.9% 0 in
12:59 78.3 °F 54.5 °F 29.9 in NNE 7.5 mph 16.3 mph 43.9% 0 in
13:04 78.6 °F 54.9 °F 29.9 in ENE 9.2 mph 16 mph 44.1% 0 in
13:09 79.3 °F 54.3 °F 29.9 in ENE 8.5 mph 18.4 mph 42.2% 0 in
13:14 79.3 °F 54 °F 29.9 in NE 7.4 mph 18 mph 41.4% 0 in
13:19 79.3 °F 51.3 °F 29.9 in NE 8.3 mph 15 mph 37.7% 0 in
13:24 79.3 °F 53.2 °F 29.8 in NE 9.7 mph 16.3 mph 40.3% 0 in
13:29 79.3 °F 53.1 °F 29.8 in NE 9.7 mph 18.4 mph 40.3% 0 in
13:34 79.2 °F 54.9 °F 29.8 in NE 9.7 mph 23 mph 43.1% 0 in
13:39 78.6 °F 55.2 °F 29.8 in NE 10.9 mph 23 mph 44.4% 0 in
13:44 78.8 °F 54.5 °F 29.8 in NE 13 mph 23 mph 43.3% 0 in
13:49 79.2 °F 54.5 °F 29.8 in NE 11.9 mph 19 mph 42.7% 0 in
13:54 79.2 °F 55 °F 29.8 in NE 10 mph 20.8 mph 43.3% 0 in
13:59 79.2 °F 53.2 °F 29.8 in NE 10.6 mph 22.3 mph 40.8% 0 in
14:04 79.3 °F 51.3 °F 29.8 in NE 11.4 mph 22 mph 37.7% 0 in
14:09 79.7 °F 50.7 °F 29.8 in NE 11.4 mph 22 mph 36.5% 0 in
14:14 79.5 °F 52.9 °F 29.8 in NE 11.4 mph 21.9 mph 39.7% 0 in
14:19 79.3 °F 53.4 °F 29.8 in NE 11.4 mph 22 mph 40.7% 0 in
14:24 79.3 °F 52.9 °F 29.8 in NE 11.4 mph 24.2 mph 40.1% 0 in
14:29 79.2 °F 53.4 °F 29.8 in NE 12 mph 24 mph 41.1% 0 in
14:34 79.2 °F 52.7 °F 29.8 in NE 13 mph 21 mph 40% 0 in
14:39 79.9 °F 53.2 °F 29.8 in NE 12.4 mph 21 mph 39.8% 0 in
14:44 79.7 °F 54.1 °F 29.8 in NE 11.4 mph 21.9 mph 41.2% 0 in
14:49 79.3 °F 54.5 °F 29.8 in NE 11.8 mph 22 mph 42.5% 0 in
14:54 79.3 °F 51.6 °F 29.8 in NE 12.5 mph 22 mph 38.2% 0 in
14:59 79.2 °F 55.8 °F 29.8 in NE 12.5 mph 23 mph 44.8% 0 in
15:04 78.8 °F 55.9 °F 29.8 in NE 12.5 mph 23 mph 45.7% 0 in
15:09 78.6 °F 55 °F 29.8 in NE 12.9 mph 23.5 mph 44.3% 0 in
15:14 79 °F 54.5 °F 29.8 in ENE 13.5 mph 23 mph 42.9% 0 in
15:19 79.2 °F 56.7 °F 29.8 in NE 12.6 mph 21.3 mph 46.2% 0 in
15:24 79.2 °F 55.4 °F 29.8 in NE 11.2 mph 21.9 mph 44% 0 in
15:29 79.2 °F 52.9 °F 29.8 in NE 11.6 mph 22 mph 40.4% 0 in
15:34 79.3 °F 52 °F 29.8 in ENE 12.3 mph 22 mph 38.6% 0 in
15:39 79.5 °F 51.6 °F 29.8 in NE 11.6 mph 23 mph 37.9% 0 in
15:44 79.2 °F 52.2 °F 29.8 in NE 10.2 mph 24.2 mph 39.1% 0 in
15:49 78.6 °F 55.4 °F 29.8 in NE 11.1 mph 24 mph 44.8% 0 in
15:54 78.4 °F 55.4 °F 29.8 in ENE 12.5 mph 19 mph 45.3% 0 in
15:59 78.8 °F 54.5 °F 29.8 in ENE 11.5 mph 19.7 mph 43.3% 0 in
16:04 79.2 °F 52.7 °F 29.8 in NE 10.2 mph 20 mph 39.8% 0 in
16:09 79.3 °F 52 °F 29.8 in NE 10.1 mph 19 mph 38.7% 0 in
16:14 79.5 °F 52.7 °F 29.8 in ENE 10 mph 18 mph 39.5% 0 in
16:19 79.3 °F 52.7 °F 29.8 in NE 10.1 mph 18.4 mph 39.5% 0 in
16:24 79.3 °F 52.9 °F 29.8 in ENE 10.2 mph 18 mph 39.8% 0 in
16:29 79.5 °F 52.7 °F 29.8 in ENE 9.6 mph 16.3 mph 39.3% 0 in
16:34 79.5 °F 52.9 °F 29.8 in ENE 8.7 mph 16 mph 39.6% 0 in
16:39 80.1 °F 52.7 °F 29.8 in ENE 8.2 mph 13.8 mph 38.9% 0 in
16:44 79.9 °F 52.9 °F 29.8 in NE 7.4 mph 16.3 mph 39.3% 0 in
16:49 79.5 °F 53.6 °F 29.8 in NE 7.9 mph 16 mph 40.7% 0 in
16:54 79.9 °F 53.6 °F 29.8 in NE 8.7 mph 14 mph 40.3% 0 in
16:59 79.9 °F 55.6 °F 29.8 in NE 8.3 mph 15.2 mph 43.4% 0 in
17:04 79.5 °F 55.6 °F 29.8 in NE 7.6 mph 15 mph 43.9% 0 in
17:09 79.7 °F 55.6 °F 29.8 in NE 7.8 mph 15.2 mph 43.6% 0 in
17:14 79 °F 57.2 °F 29.8 in NE 8.1 mph 18.5 mph 47.1% 0 in
17:19 79 °F 57.6 °F 29.8 in NE 8.9 mph 19 mph 48% 0 in
17:24 79 °F 57.9 °F 29.8 in ENE 10.2 mph 15.2 mph 48.7% 0 in
17:29 78.6 °F 57.2 °F 29.8 in NE 9.1 mph 16.1 mph 47.7% 0 in
17:34 78.6 °F 56.5 °F 29.8 in ENE 7.4 mph 16 mph 46.5% 0 in
17:39 79 °F 57 °F 29.8 in NE 7.5 mph 15.2 mph 47% 0 in
17:44 79.2 °F 56.5 °F 29.8 in NE 7.6 mph 17.5 mph 46.1% 0 in
17:49 79 °F 56.5 °F 29.8 in ENE 8 mph 17 mph 46% 0 in
17:54 79.2 °F 55.9 °F 29.8 in ESE 8.7 mph 14 mph 44.8% 0 in
17:59 79.3 °F 55.4 °F 29.8 in Este 8 mph 12 mph 43.7% 0 in
18:04 79.5 °F 55.2 °F 29.8 in ESE 6.9 mph 15.2 mph 43.2% 0 in
18:09 79.3 °F 55.8 °F 29.8 in ESE 7.3 mph 16.1 mph 44.4% 0 in
18:14 79.2 °F 55.4 °F 29.8 in ESE 8.1 mph 16 mph 44% 0 in
18:19 79 °F 54.9 °F 29.8 in ESE 7.9 mph 12 mph 43.6% 0 in
18:24 79 °F 55.4 °F 29.8 in ESE 7.6 mph 13.8 mph 44.3% 0 in
18:29 79 °F 55 °F 29.8 in ESE 7.5 mph 14 mph 43.7% 0 in
18:34 79 °F 54.9 °F 29.8 in Este 7.4 mph 13.8 mph 43.7% 0 in
18:39 79 °F 55.8 °F 29.8 in ESE 7.5 mph 14 mph 44.9% 0 in
18:44 78.6 °F 55.6 °F 29.8 in ESE 7.6 mph 13 mph 45% 0 in
18:49 78.6 °F 56.7 °F 29.8 in ESE 7.8 mph 16.1 mph 46.8% 0 in
18:54 78.6 °F 56.1 °F 29.8 in ESE 8.1 mph 16 mph 46% 0 in
18:59 78.6 °F 55.9 °F 29.8 in ESE 8.1 mph 14 mph 45.6% 0 in
19:04 79 °F 55.2 °F 29.8 in ESE 8.1 mph 14 mph 44.2% 0 in
19:09 78.8 °F 54.9 °F 29.8 in ESE 7.8 mph 14 mph 43.8% 0 in
19:14 78.4 °F 54.3 °F 29.8 in ESE 7.4 mph 13 mph 43.2% 0 in
19:19 78.4 °F 54.7 °F 29.8 in ESE 7.5 mph 14 mph 44% 0 in
19:24 78.4 °F 55 °F 29.8 in ESE 7.6 mph 14 mph 44.5% 0 in
19:29 78.3 °F 54.5 °F 29.8 in ESE 7.8 mph 15 mph 43.9% 0 in
19:34 78.1 °F 54.5 °F 29.8 in Este 8.1 mph 15 mph 44% 0 in
19:39 78.1 °F 54.5 °F 29.8 in ESE 7.8 mph 13.8 mph 44% 0 in
19:44 77.9 °F 54.3 °F 29.8 in ESE 7.4 mph 14 mph 44% 0 in
19:49 77.9 °F 54.1 °F 29.8 in ESE 7.6 mph 14 mph 44% 0 in
19:54 77.7 °F 54.3 °F 29.8 in Este 8.1 mph 14 mph 44.5% 0 in
19:59 77.5 °F 55.8 °F 29.8 in ENE 7.3 mph 11.8 mph 46.9% 0 in
20:04 77.5 °F 56.3 °F 29.8 in NE 6.2 mph 12 mph 48% 0 in
20:09 77.5 °F 56.3 °F 29.8 in ENE 5.8 mph 9.2 mph 47.9% 0 in
20:14 77.5 °F 56.1 °F 29.8 in NE 5.2 mph 9.2 mph 47.7% 0 in
20:19 77.2 °F 57.2 °F 29.8 in Este 5.6 mph 12.7 mph 50.2% 0 in
20:24 76.5 °F 57.7 °F 29.8 in ENE 6.2 mph 13 mph 52.3% 0 in
20:29 76.1 °F 58.1 °F 29.8 in ENE 6.7 mph 16.3 mph 53.7% 0 in
20:34 75.7 °F 58.3 °F 29.8 in ENE 7.6 mph 16 mph 54.8% 0 in
20:39 75.6 °F 58.6 °F 29.8 in ENE 7.3 mph 11.5 mph 55.7% 0 in
20:44 75 °F 58.8 °F 29.8 in NE 6.9 mph 14 mph 56.8% 0 in
20:49 74.7 °F 58.6 °F 29.8 in NE 7.5 mph 15 mph 57.5% 0 in
20:54 74.5 °F 59 °F 29.8 in NE 8.5 mph 15 mph 58.8% 0 in
20:59 74.1 °F 59.2 °F 29.8 in NE 7.6 mph 11 mph 59.7% 0 in
21:04 73.8 °F 59.5 °F 29.8 in ENE 6.4 mph 13 mph 61.2% 0 in
21:09 73.4 °F 59.7 °F 29.8 in NE 6.4 mph 13.8 mph 62.3% 0 in
21:14 73 °F 59.7 °F 29.8 in NE 6.4 mph 14 mph 63.3% 0 in
21:19 72.7 °F 59.7 °F 29.8 in NE 6.6 mph 14 mph 64% 0 in
21:24 72.3 °F 60.1 °F 29.8 in NE 6.9 mph 15 mph 65.3% 0 in
21:29 72 °F 59.9 °F 29.8 in NE 7.5 mph 15 mph 66% 0 in
21:34 71.4 °F 59.5 °F 29.8 in NE 8.5 mph 18.4 mph 66% 0 in
21:39 71.1 °F 59.7 °F 29.8 in NE 9.1 mph 18 mph 67.3% 0 in
21:44 70.7 °F 59.7 °F 29.8 in NE 10 mph 16 mph 68.4% 0 in
21:49 70.3 °F 59.9 °F 29.8 in NE 9.9 mph 15 mph 69.5% 0 in
21:54 70.2 °F 60.1 °F 29.8 in NE 9.7 mph 17.3 mph 70.6% 0 in
21:59 69.8 °F 60.3 °F 29.8 in NE 9.8 mph 17.3 mph 71.8% 0 in
22:04 69.4 °F 60.4 °F 29.8 in NE 10 mph 17.3 mph 72.7% 0 in
22:09 69.4 °F 60.6 °F 29.8 in NE 9.9 mph 17 mph 73.6% 0 in
22:14 69.3 °F 60.6 °F 29.8 in NE 9.7 mph 15 mph 74% 0 in
22:19 69.1 °F 60.6 °F 29.8 in NE 9.3 mph 15 mph 74.6% 0 in
22:24 68.7 °F 60.4 °F 29.8 in NE 8.5 mph 13 mph 75% 0 in
22:29 68.5 °F 60.4 °F 29.8 in NE 8.5 mph 16.1 mph 75.5% 0 in
22:34 68.5 °F 60.6 °F 29.8 in NE 8.5 mph 16.1 mph 76% 0 in
22:39 68.4 °F 60.8 °F 29.8 in NE 9.1 mph 16.1 mph 76.8% 0 in
22:44 68.4 °F 61 °F 29.8 in NE 10 mph 16 mph 77% 0 in
22:49 68.4 °F 61 °F 29.8 in NE 9.3 mph 15 mph 77% 0 in
22:54 68.4 °F 61 °F 29.8 in NE 8.1 mph 12.5 mph 77.5% 0 in
22:59 68.2 °F 61.2 °F 29.8 in NE 7.6 mph 13 mph 78% 0 in
23:04 68 °F 61 °F 29.8 in NE 6.9 mph 12 mph 78% 0 in
23:09 67.8 °F 60.8 °F 29.8 in NE 6.9 mph 11.5 mph 78% 0 in
23:14 67.8 °F 60.6 °F 29.8 in NE 6.9 mph 12 mph 78% 0 in
23:19 67.6 °F 60.6 °F 29.8 in NE 6.9 mph 12 mph 78% 0 in
23:24 67.5 °F 60.8 °F 29.8 in NE 6.9 mph 10.4 mph 79% 0 in
23:29 67.5 °F 60.6 °F 29.8 in NE 6.7 mph 11.4 mph 79% 0 in
23:34 67.3 °F 60.8 °F 29.8 in NE 6.4 mph 15 mph 79.7% 0 in
23:39 67.1 °F 60.8 °F 29.8 in NE 7 mph 15 mph 80% 0 in
23:44 66.9 °F 60.4 °F 29.8 in NE 8.1 mph 15 mph 80% 0 in
23:49 66.9 °F 60.4 °F 29.8 in NE 8.5 mph 14 mph 80% 0 in
23:54 66.9 °F 60.6 °F 29.8 in NE 9.2 mph 13 mph 80.3% 0 in
23:59 66.7 °F 60.8 °F 29.8 in NE 8.1 mph 10.7 mph 81% 0 in
Murcia-Puente Tocinos, España
Compliments of Weather Underground - 3 mb

La estación de MeteoMurcia.com, publica sus datos en los siguientes proyectos:

Weather Underground PWS IMURCIAP2 Meteoclimatic www.awekas.at

W3Counter
Web Analytics